sensor_id;sensor_type;location;lat;lon;timestamp;P1;durP1;ratioP1;P2;durP2;ratioP2
6926;SDS011;3503;50.07605000;8.86719200;2023-08-30T00:02:54;7.70;;;3.50;;
6926;SDS011;3503;50.07605000;8.86719200;2023-08-30T00:17:57;6.60;;;3.30;;
6926;SDS011;3503;50.07605000;8.86719200;2023-08-30T00:33:00;7.73;;;3.30;;
6926;SDS011;3503;50.07605000;8.86719200;2023-08-30T00:48:04;7.60;;;3.27;;
6926;SDS011;3503;50.07605000;8.86719200;2023-08-30T01:03:07;13.83;;;3.53;;
6926;SDS011;3503;50.07605000;8.86719200;2023-08-30T01:18:10;4.23;;;2.70;;
6926;SDS011;3503;50.07605000;8.86719200;2023-08-30T01:33:15;5.17;;;3.50;;
6926;SDS011;3503;50.07605000;8.86719200;2023-08-30T01:48:19;5.40;;;3.90;;
6926;SDS011;3503;50.07605000;8.86719200;2023-08-30T02:03:22;9.83;;;4.10;;
6926;SDS011;3503;50.07605000;8.86719200;2023-08-30T02:18:26;5.90;;;3.40;;
6926;SDS011;3503;50.07605000;8.86719200;2023-08-30T02:33:29;5.63;;;3.80;;
6926;SDS011;3503;50.07605000;8.86719200;2023-08-30T02:48:31;6.20;;;4.40;;
6926;SDS011;3503;50.07605000;8.86719200;2023-08-30T03:03:35;5.20;;;3.90;;
6926;SDS011;3503;50.07605000;8.86719200;2023-08-30T03:18:37;6.77;;;4.97;;
6926;SDS011;3503;50.07605000;8.86719200;2023-08-30T03:33:40;7.67;;;5.50;;
6926;SDS011;3503;50.07605000;8.86719200;2023-08-30T03:48:44;6.80;;;4.80;;
6926;SDS011;3503;50.07605000;8.86719200;2023-08-30T04:03:47;7.50;;;6.13;;
6926;SDS011;3503;50.07605000;8.86719200;2023-08-30T04:18:49;9.20;;;7.83;;
6926;SDS011;3503;50.07605000;8.86719200;2023-08-30T04:33:52;10.37;;;7.90;;
6926;SDS011;3503;50.07605000;8.86719200;2023-08-30T04:48:56;10.70;;;8.23;;
6926;SDS011;3503;50.07605000;8.86719200;2023-08-30T05:03:59;11.20;;;8.20;;
6926;SDS011;3503;50.07605000;8.86719200;2023-08-30T05:19:02;11.13;;;7.90;;
6926;SDS011;3503;50.07605000;8.86719200;2023-08-30T05:34:05;13.67;;;7.30;;
6926;SDS011;3503;50.07605000;8.86719200;2023-08-30T05:49:08;11.50;;;9.37;;
6926;SDS011;3503;50.07605000;8.86719200;2023-08-30T06:04:11;18.60;;;9.20;;
6926;SDS011;3503;50.07605000;8.86719200;2023-08-30T06:19:15;13.30;;;10.07;;
6926;SDS011;3503;50.07605000;8.86719200;2023-08-30T06:34:18;15.97;;;9.67;;
6926;SDS011;3503;50.07605000;8.86719200;2023-08-30T06:49:20;11.60;;;8.37;;
6926;SDS011;3503;50.07605000;8.86719200;2023-08-30T07:04:23;13.57;;;7.80;;
6926;SDS011;3503;50.07605000;8.86719200;2023-08-30T07:19:26;10.70;;;8.53;;
6926;SDS011;3503;50.07605000;8.86719200;2023-08-30T07:34:29;14.00;;;9.63;;
6926;SDS011;3503;50.07605000;8.86719200;2023-08-30T07:49:32;12.60;;;9.17;;
6926;SDS011;3503;50.07605000;8.86719200;2023-08-30T08:04:35;14.63;;;8.33;;
6926;SDS011;3503;50.07605000;8.86719200;2023-08-30T08:19:38;9.17;;;8.20;;
6926;SDS011;3503;50.07605000;8.86719200;2023-08-30T08:34:41;21.50;;;11.13;;
6926;SDS011;3503;50.07605000;8.86719200;2023-08-30T08:49:44;10.37;;;9.37;;
6926;SDS011;3503;50.07605000;8.86719200;2023-08-30T09:04:47;12.80;;;9.30;;
6926;SDS011;3503;50.07605000;8.86719200;2023-08-30T09:19:50;9.93;;;8.93;;
6926;SDS011;3503;50.07605000;8.86719200;2023-08-30T09:34:53;11.37;;;8.43;;
6926;SDS011;3503;50.07605000;8.86719200;2023-08-30T09:49:56;11.77;;;5.87;;
6926;SDS011;3503;50.07605000;8.86719200;2023-08-30T10:05:01;9.30;;;7.23;;
6926;SDS011;3503;50.07605000;8.86719200;2023-08-30T10:20:07;10.27;;;6.93;;
6926;SDS011;3503;50.07605000;8.86719200;2023-08-30T10:35:12;6.23;;;4.53;;
6926;SDS011;3503;50.07605000;8.86719200;2023-08-30T10:50:15;4.10;;;3.70;;
6926;SDS011;3503;50.07605000;8.86719200;2023-08-30T11:05:20;3.53;;;3.20;;
6926;SDS011;3503;50.07605000;8.86719200;2023-08-30T11:20:23;5.00;;;3.60;;
6926;SDS011;3503;50.07605000;8.86719200;2023-08-30T11:35:26;3.33;;;3.00;;
6926;SDS011;3503;50.07605000;8.86719200;2023-08-30T11:50:29;4.63;;;2.63;;
6926;SDS011;3503;50.07605000;8.86719200;2023-08-30T12:05:32;4.60;;;2.20;;
6926;SDS011;3503;50.07605000;8.86719200;2023-08-30T12:20:38;6.50;;;2.43;;
6926;SDS011;3503;50.07605000;8.86719200;2023-08-30T12:35:41;6.87;;;3.43;;
6926;SDS011;3503;50.07605000;8.86719200;2023-08-30T12:50:45;5.90;;;3.03;;
6926;SDS011;3503;50.07605000;8.86719200;2023-08-30T13:05:48;5.33;;;3.50;;
6926;SDS011;3503;50.07605000;8.86719200;2023-08-30T13:20:53;6.17;;;2.97;;
6926;SDS011;3503;50.07605000;8.86719200;2023-08-30T13:35:56;4.33;;;3.17;;
6926;SDS011;3503;50.07605000;8.86719200;2023-08-30T13:50:59;4.20;;;3.13;;
6926;SDS011;3503;50.07605000;8.86719200;2023-08-30T14:06:02;4.80;;;3.63;;
6926;SDS011;3503;50.07605000;8.86719200;2023-08-30T14:21:05;5.87;;;3.43;;
6926;SDS011;3503;50.07605000;8.86719200;2023-08-30T14:36:09;4.70;;;3.57;;
6926;SDS011;3503;50.07605000;8.86719200;2023-08-30T14:51:12;7.30;;;3.33;;
6926;SDS011;3503;50.07605000;8.86719200;2023-08-30T15:06:15;7.30;;;4.00;;
6926;SDS011;3503;50.07605000;8.86719200;2023-08-30T15:21:19;6.30;;;3.40;;
6926;SDS011;3503;50.07605000;8.86719200;2023-08-30T15:36:22;5.40;;;3.60;;
6926;SDS011;3503;50.07605000;8.86719200;2023-08-30T15:51:25;15.90;;;9.33;;
6926;SDS011;3503;50.07605000;8.86719200;2023-08-30T16:06:28;6.10;;;3.60;;
6926;SDS011;3503;50.07605000;8.86719200;2023-08-30T16:21:31;4.27;;;3.60;;
6926;SDS011;3503;50.07605000;8.86719200;2023-08-30T16:36:34;5.60;;;2.80;;
6926;SDS011;3503;50.07605000;8.86719200;2023-08-30T16:51:37;12.60;;;3.20;;
6926;SDS011;3503;50.07605000;8.86719200;2023-08-30T17:06:41;6.00;;;2.77;;
6926;SDS011;3503;50.07605000;8.86719200;2023-08-30T17:21:44;6.40;;;3.43;;
6926;SDS011;3503;50.07605000;8.86719200;2023-08-30T17:36:47;2.90;;;2.20;;
6926;SDS011;3503;50.07605000;8.86719200;2023-08-30T17:51:54;3.73;;;2.03;;
6926;SDS011;3503;50.07605000;8.86719200;2023-08-30T18:06:57;4.23;;;1.77;;
6926;SDS011;3503;50.07605000;8.86719200;2023-08-30T18:22:01;11.43;;;2.33;;
6926;SDS011;3503;50.07605000;8.86719200;2023-08-30T18:37:05;4.80;;;2.30;;
6926;SDS011;3503;50.07605000;8.86719200;2023-08-30T18:52:09;4.77;;;2.70;;
6926;SDS011;3503;50.07605000;8.86719200;2023-08-30T19:07:11;3.67;;;1.83;;
6926;SDS011;3503;50.07605000;8.86719200;2023-08-30T19:22:15;4.37;;;1.60;;
6926;SDS011;3503;50.07605000;8.86719200;2023-08-30T19:37:22;6.27;;;2.00;;
6926;SDS011;3503;50.07605000;8.86719200;2023-08-30T19:52:28;3.60;;;2.07;;
6926;SDS011;3503;50.07605000;8.86719200;2023-08-30T20:07:31;4.20;;;2.50;;
6926;SDS011;3503;50.07605000;8.86719200;2023-08-30T20:22:34;9.30;;;2.90;;
6926;SDS011;3503;50.07605000;8.86719200;2023-08-30T20:37:42;5.97;;;3.33;;
6926;SDS011;3503;50.07605000;8.86719200;2023-08-30T20:52:46;5.00;;;2.83;;
6926;SDS011;3503;50.07605000;8.86719200;2023-08-30T21:07:49;4.53;;;2.27;;
6926;SDS011;3503;50.07605000;8.86719200;2023-08-30T21:22:52;4.73;;;2.10;;
6926;SDS011;3503;50.07605000;8.86719200;2023-08-30T21:37:55;6.70;;;3.20;;
6926;SDS011;3503;50.07605000;8.86719200;2023-08-30T21:52:58;4.67;;;1.80;;
6926;SDS011;3503;50.07605000;8.86719200;2023-08-30T22:08:01;5.10;;;1.90;;
6926;SDS011;3503;50.07605000;8.86719200;2023-08-30T22:23:05;6.20;;;1.93;;
6926;SDS011;3503;50.07605000;8.86719200;2023-08-30T22:38:08;4.50;;;2.03;;
6926;SDS011;3503;50.07605000;8.86719200;2023-08-30T22:53:11;4.00;;;1.97;;
6926;SDS011;3503;50.07605000;8.86719200;2023-08-30T23:08:14;2.03;;;1.60;;
6926;SDS011;3503;50.07605000;8.86719200;2023-08-30T23:23:18;5.10;;;2.50;;
6926;SDS011;3503;50.07605000;8.86719200;2023-08-30T23:38:21;7.00;;;3.33;;
6926;SDS011;3503;50.07605000;8.86719200;2023-08-30T23:53:24;6.13;;;3.77;;
